createdAt,value
2023-04-19T00:02:10.536Z,22.91
2023-04-19T00:04:40.432Z,22.79
2023-04-19T00:07:10.266Z,22.88
2023-04-19T00:09:39.984Z,22.91
2023-04-19T00:12:09.617Z,23.04
2023-04-19T00:14:39.315Z,23.17
2023-04-19T00:17:09.138Z,23.29
2023-04-19T00:19:39.261Z,23.20
2023-04-19T00:22:08.953Z,23.24
2023-04-19T00:24:38.648Z,23.15
2023-04-19T00:27:08.413Z,23.23
2023-04-19T00:29:40.605Z,23.23
2023-04-19T00:32:11.109Z,23.42
2023-04-19T00:34:40.796Z,23.55
2023-04-19T00:37:14.445Z,23.40
2023-04-19T00:39:44.203Z,23.57
2023-04-19T00:42:13.841Z,23.68
2023-04-19T00:44:44.167Z,23.64
2023-04-19T00:47:13.879Z,23.64
2023-04-19T00:49:43.572Z,23.62
2023-04-19T00:52:14.324Z,23.45
2023-04-19T00:54:44.029Z,23.63
2023-04-19T00:57:16.356Z,23.65
2023-04-19T00:59:46.232Z,23.48
2023-04-19T01:02:16.830Z,23.59
2023-04-19T01:04:46.974Z,23.65
2023-04-19T01:07:17.144Z,23.61
2023-04-19T01:09:47.016Z,24.40
2023-04-19T01:12:16.738Z,24.97
2023-04-19T01:14:47.309Z,25.70
2023-04-19T01:17:17.016Z,26.43
2023-04-19T01:19:46.706Z,26.88
2023-04-19T01:22:25.237Z,26.99
2023-04-19T01:24:54.849Z,27.07
2023-04-19T01:27:25.419Z,27.26
2023-04-19T01:29:55.089Z,26.92
2023-04-19T01:32:24.827Z,26.56
2023-04-19T01:34:54.978Z,26.10
2023-04-19T01:37:24.755Z,25.79
2023-04-19T01:39:54.452Z,25.61
2023-04-19T01:42:24.405Z,25.43
2023-04-19T01:44:54.110Z,25.41
2023-04-19T01:47:24.555Z,25.78
2023-04-19T01:49:54.218Z,25.94
2023-04-19T01:52:23.939Z,25.64
2023-04-19T01:54:53.681Z,25.39
2023-04-19T01:57:23.388Z,25.15
2023-04-19T01:59:55.492Z,25.41
2023-04-19T02:02:25.352Z,25.82
2023-04-19T02:04:55.040Z,25.78
2023-04-19T02:07:24.753Z,25.50
2023-04-19T02:09:54.480Z,25.24
2023-04-19T02:12:24.977Z,25.16
2023-04-19T02:14:54.744Z,25.59
2023-04-19T02:17:24.471Z,25.81
2023-04-19T02:19:54.761Z,25.69
2023-04-19T02:22:24.522Z,25.38
2023-04-19T02:24:54.235Z,25.09
2023-04-19T02:27:23.996Z,25.36
2023-04-19T02:29:53.677Z,25.80
2023-04-19T02:32:39.411Z,25.69
2023-04-19T02:35:18.971Z,25.29
2023-04-19T02:37:48.673Z,25.23
2023-04-19T02:40:18.374Z,25.14
2023-04-19T02:42:47.989Z,25.25
2023-04-19T02:45:17.777Z,25.04
2023-04-19T02:47:48.289Z,25.18
2023-04-19T02:50:18.912Z,25.70
2023-04-19T02:52:55.232Z,25.89
2023-04-19T02:55:24.959Z,25.68
2023-04-19T02:57:54.695Z,25.39
2023-04-19T03:00:24.354Z,25.20
2023-04-19T03:02:54.261Z,25.45
2023-04-19T03:05:24.488Z,25.88
2023-04-19T03:07:54.227Z,25.90
2023-04-19T03:10:27.802Z,25.64
2023-04-19T03:12:57.470Z,25.43
2023-04-19T03:15:27.128Z,25.34
2023-04-19T03:17:56.945Z,25.72
2023-04-19T03:20:27.010Z,25.98
2023-04-19T03:22:56.657Z,25.88
2023-04-19T03:25:26.375Z,25.64
2023-04-19T03:27:56.228Z,25.34
2023-04-19T03:30:25.875Z,25.30
2023-04-19T03:32:55.610Z,25.62
2023-04-19T03:35:27.806Z,26.01
2023-04-19T03:37:57.484Z,25.98
2023-04-19T03:40:27.192Z,25.68
2023-04-19T03:42:56.999Z,25.52
2023-04-19T03:45:26.834Z,25.38
2023-04-19T03:47:56.613Z,25.30
2023-04-19T03:50:26.340Z,25.21
2023-04-19T03:52:56.357Z,25.44
2023-04-19T03:55:25.977Z,25.90
2023-04-19T03:57:55.664Z,26.01
2023-04-19T04:00:29.075Z,25.81
2023-04-19T04:02:58.970Z,25.65
2023-04-19T04:05:30.738Z,25.38
2023-04-19T04:08:00.625Z,25.64
2023-04-19T04:10:30.241Z,26.05
2023-04-19T04:12:59.887Z,25.97
2023-04-19T04:15:29.588Z,25.77
2023-04-19T04:17:59.297Z,25.51
2023-04-19T04:20:29.034Z,25.41
2023-04-19T04:22:58.736Z,25.76
2023-04-19T04:25:30.448Z,26.04
2023-04-19T04:28:00.132Z,25.99
2023-04-19T04:30:30.265Z,25.76
2023-04-19T04:33:00.528Z,25.46
2023-04-19T04:35:31.498Z,25.41
2023-04-19T04:38:11.059Z,25.82
2023-04-19T04:40:57.305Z,26.10
2023-04-19T04:43:30.539Z,25.88
2023-04-19T04:46:03.253Z,25.73
2023-04-19T04:48:33.113Z,25.48
2023-04-19T04:51:02.809Z,25.49
2023-04-19T04:53:32.539Z,25.95
2023-04-19T04:56:02.260Z,26.17
2023-04-19T04:58:32.041Z,26.00
2023-04-19T05:01:01.820Z,25.77
2023-04-19T05:03:34.782Z,25.56
2023-04-19T05:06:07.891Z,25.38
2023-04-19T05:08:37.659Z,25.21
2023-04-19T05:11:07.406Z,25.09
2023-04-19T05:13:37.299Z,24.99
2023-04-19T05:16:07.333Z,24.82
2023-04-19T05:18:40.610Z,24.73
2023-04-19T05:21:12.147Z,24.77
2023-04-19T05:23:41.873Z,24.65
2023-04-19T05:26:14.265Z,24.63
2023-04-19T05:28:45.836Z,24.65
2023-04-19T05:31:15.725Z,24.57
2023-04-19T05:33:45.489Z,24.57
2023-04-19T05:36:15.241Z,24.53
2023-04-19T05:38:44.948Z,24.53
2023-04-19T05:41:14.652Z,24.48
2023-04-19T05:43:44.334Z,24.44
2023-04-19T05:46:14.097Z,24.46
2023-04-19T05:48:43.743Z,24.46
2023-04-19T05:51:13.703Z,24.39
2023-04-19T05:53:43.381Z,24.38
2023-04-19T05:56:13.010Z,24.34
2023-04-19T05:58:42.637Z,24.30
2023-04-19T06:01:12.435Z,24.38
2023-04-19T06:03:42.400Z,24.33
2023-04-19T06:06:12.272Z,24.25
2023-04-19T06:08:42.010Z,24.29
2023-04-19T06:11:20.165Z,24.29
2023-04-19T06:13:54.582Z,24.24
2023-04-19T06:16:24.330Z,24.24
2023-04-19T06:18:54.040Z,24.30
2023-04-19T06:21:23.648Z,24.28
2023-04-19T06:23:53.342Z,24.28
2023-04-19T06:26:23.276Z,24.27
2023-04-19T06:28:53.042Z,24.24
2023-04-19T06:31:22.723Z,24.22
2023-04-19T06:33:52.578Z,24.30
2023-04-19T06:36:22.711Z,24.18
2023-04-19T06:38:52.505Z,24.24
2023-04-19T06:41:22.193Z,24.21
2023-04-19T06:43:51.937Z,24.20
2023-04-19T06:46:21.679Z,24.16
2023-04-19T06:48:51.446Z,24.16
2023-04-19T06:51:21.159Z,24.16
2023-04-19T06:53:52.736Z,24.14
2023-04-19T06:56:40.929Z,24.11
2023-04-19T06:59:10.622Z,24.14
2023-04-19T07:01:41.357Z,24.08
2023-04-19T07:04:11.251Z,24.10
2023-04-19T07:06:41.148Z,24.16
2023-04-19T07:09:10.869Z,24.12
2023-04-19T07:11:40.672Z,24.07
2023-04-19T07:14:10.338Z,23.98
2023-04-19T07:16:39.891Z,23.97
2023-04-19T07:19:09.556Z,24.13
2023-04-19T07:21:40.742Z,24.05
2023-04-19T07:24:10.516Z,24.08
2023-04-19T07:26:40.303Z,24.14
2023-04-19T07:29:10.590Z,24.14
2023-04-19T07:31:40.445Z,24.11
2023-04-19T07:34:10.515Z,24.19
2023-04-19T07:36:40.630Z,24.24
2023-04-19T07:39:10.607Z,24.20
2023-04-19T07:41:40.667Z,24.22
2023-04-19T07:44:13.005Z,24.21
2023-04-19T07:46:45.902Z,24.31
2023-04-19T07:49:16.308Z,24.23
2023-04-19T07:51:45.927Z,24.33
2023-04-19T07:54:18.208Z,24.34
2023-04-19T07:56:50.860Z,24.43
2023-04-19T07:59:20.592Z,24.30
2023-04-19T08:01:51.124Z,24.31
2023-04-19T08:04:21.793Z,24.29
2023-04-19T08:06:51.761Z,24.36
2023-04-19T08:09:21.536Z,24.39
2023-04-19T08:11:51.273Z,24.34
2023-04-19T08:14:34.693Z,24.34
2023-04-19T08:17:23.985Z,24.31
2023-04-19T08:19:56.667Z,24.32
2023-04-19T08:22:26.305Z,24.33
2023-04-19T08:24:55.988Z,24.27
2023-04-19T08:27:28.556Z,24.32
2023-04-19T08:29:58.161Z,24.25
2023-04-19T08:32:27.808Z,24.09
2023-04-19T08:34:58.852Z,24.03
2023-04-19T08:37:28.862Z,24.08
2023-04-19T08:39:58.496Z,24.02
2023-04-19T08:42:35.489Z,24.07
2023-04-19T08:45:26.914Z,23.94
2023-04-19T08:48:01.844Z,23.91
2023-04-19T08:50:40.466Z,23.92
2023-04-19T08:53:24.609Z,23.90
2023-04-19T08:56:12.945Z,23.75
2023-04-19T08:59:03.909Z,23.79
2023-04-19T09:01:40.437Z,23.86
2023-04-19T09:04:34.448Z,23.87
2023-04-19T09:07:00.898Z,23.74
2023-04-19T09:12:04.713Z,23.82
2023-04-19T09:14:34.353Z,23.73
2023-04-19T09:17:19.069Z,23.67
2023-04-19T09:19:51.841Z,23.69
2023-04-19T09:22:21.612Z,23.68
2023-04-19T09:27:37.826Z,23.65
2023-04-19T09:30:12.758Z,23.62
2023-04-19T09:32:50.736Z,23.62
2023-04-19T09:35:20.472Z,23.60
2023-04-19T09:38:06.694Z,23.55
2023-04-19T09:40:36.867Z,23.60
2023-04-19T09:43:26.255Z,23.57
2023-04-19T09:45:56.142Z,23.59
2023-04-19T09:48:25.850Z,23.58
2023-04-19T09:51:05.816Z,23.60
2023-04-19T09:53:38.821Z,23.55
2023-04-19T09:56:08.845Z,23.56
2023-04-19T09:58:50.230Z,23.56
2023-04-19T10:01:24.268Z,23.54
2023-04-19T10:03:54.447Z,23.56
2023-04-19T10:09:00.331Z,23.47
2023-04-19T10:11:32.049Z,23.52
2023-04-19T10:14:02.585Z,23.48
2023-04-19T10:16:33.153Z,23.45
2023-04-19T10:19:03.363Z,23.43
2023-04-19T10:21:34.260Z,23.47
2023-04-19T10:24:04.133Z,23.42
2023-04-19T10:26:33.807Z,23.44
2023-04-19T10:29:03.429Z,23.41
2023-04-19T10:31:33.122Z,23.36
2023-04-19T10:34:02.844Z,23.37
2023-04-19T10:36:32.609Z,23.34
2023-04-19T10:39:02.287Z,23.32
2023-04-19T10:42:03.705Z,23.30
2023-04-19T10:44:33.331Z,23.33
2023-04-19T10:47:02.970Z,23.29
2023-04-19T10:49:32.830Z,23.32
2023-04-19T10:52:02.452Z,23.31
2023-04-19T10:54:40.441Z,23.29
2023-04-19T10:57:12.957Z,23.32
2023-04-19T10:59:45.441Z,23.29
2023-04-19T11:02:29.688Z,23.31
2023-04-19T11:05:00.353Z,23.62
2023-04-19T11:07:30.135Z,23.72
2023-04-19T11:09:59.850Z,23.75
2023-04-19T11:12:29.512Z,23.75
2023-04-19T11:15:04.464Z,23.73
2023-04-19T11:17:34.421Z,23.71
2023-04-19T11:20:15.831Z,23.76
2023-04-19T11:22:48.734Z,23.75
2023-04-19T11:25:22.514Z,23.74
2023-04-19T11:27:55.567Z,23.73
2023-04-19T11:30:35.031Z,23.73
2023-04-19T11:33:05.061Z,23.73
2023-04-19T11:35:34.793Z,23.70
2023-04-19T11:38:06.096Z,23.73
2023-04-19T11:40:35.821Z,23.70
2023-04-19T11:43:06.672Z,23.67
2023-04-19T11:45:39.579Z,23.70
2023-04-19T11:48:17.037Z,23.67
2023-04-19T11:50:47.251Z,23.67
2023-04-19T11:53:18.067Z,23.68
2023-04-19T11:55:49.185Z,23.71
2023-04-19T11:58:46.111Z,23.65
2023-04-19T12:01:16.868Z,23.70
2023-04-19T12:03:51.016Z,23.68
2023-04-19T12:06:25.577Z,23.70
2023-04-19T12:08:56.236Z,23.70
2023-04-19T12:11:44.464Z,23.66
2023-04-19T12:14:18.762Z,23.67
2023-04-19T12:16:48.690Z,23.68
2023-04-19T12:19:21.789Z,23.63
2023-04-19T12:21:51.630Z,23.69
2023-04-19T12:24:21.812Z,23.68
2023-04-19T12:26:59.134Z,23.66
2023-04-19T12:29:30.804Z,23.68
2023-04-19T12:32:00.464Z,23.69
2023-04-19T12:34:30.399Z,23.65
2023-04-19T12:37:00.209Z,23.68
2023-04-19T12:39:30.411Z,23.61
2023-04-19T12:42:02.849Z,23.62
2023-04-19T12:44:32.466Z,23.64
2023-04-19T12:47:02.165Z,23.61
2023-04-19T12:49:31.823Z,23.51
2023-04-19T12:52:01.421Z,23.62
2023-04-19T12:54:31.226Z,23.64
2023-04-19T12:57:02.840Z,23.65
2023-04-19T12:59:33.166Z,23.67
2023-04-19T13:02:03.192Z,23.68
2023-04-19T13:04:33.002Z,23.67
2023-04-19T13:07:02.781Z,23.68
2023-04-19T13:09:32.500Z,23.62
2023-04-19T13:12:02.878Z,23.63
2023-04-19T13:14:32.596Z,23.64
2023-04-19T13:17:02.374Z,23.64
2023-04-19T13:19:32.730Z,23.67
2023-04-19T13:22:02.403Z,23.62
2023-04-19T13:24:32.210Z,23.62
2023-04-19T13:27:02.043Z,23.61
2023-04-19T13:29:31.875Z,23.55
2023-04-19T13:32:01.532Z,23.55
2023-04-19T13:34:31.413Z,23.59
2023-04-19T13:37:01.210Z,23.60
2023-04-19T13:39:30.844Z,23.62
2023-04-19T13:42:00.574Z,23.59
2023-04-19T13:44:30.981Z,23.58
2023-04-19T13:47:00.659Z,23.55
2023-04-19T13:49:30.397Z,23.58
2023-04-19T13:52:00.047Z,23.61
2023-04-19T13:54:29.721Z,23.58
2023-04-19T13:56:59.696Z,23.57
2023-04-19T13:59:29.610Z,23.58
2023-04-19T14:01:59.307Z,23.60
2023-04-19T14:04:29.215Z,23.58
2023-04-19T14:06:58.910Z,23.56
2023-04-19T14:09:28.549Z,23.58
2023-04-19T14:11:58.269Z,23.63
2023-04-19T14:14:29.199Z,23.63
2023-04-19T14:17:00.493Z,23.60
2023-04-19T14:19:30.136Z,23.63
2023-04-19T14:21:59.809Z,23.63
2023-04-19T14:24:29.464Z,23.63
2023-04-19T14:27:10.254Z,23.62
2023-04-19T14:29:41.321Z,23.62
2023-04-19T14:34:46.578Z,23.65
2023-04-19T14:37:16.239Z,23.62
2023-04-19T14:39:47.479Z,23.58
2023-04-19T14:42:17.143Z,23.61
2023-04-19T14:44:47.989Z,23.64
2023-04-19T14:47:17.721Z,23.63
2023-04-19T14:49:47.459Z,23.62
2023-04-19T14:52:17.391Z,23.62
2023-04-19T14:54:47.188Z,23.64
2023-04-19T14:57:16.929Z,23.63
2023-04-19T14:59:46.630Z,23.64
2023-04-19T15:02:16.448Z,23.64
2023-04-19T15:04:46.316Z,23.62
2023-04-19T15:07:16.033Z,23.56
2023-04-19T15:09:45.717Z,23.60
2023-04-19T15:12:15.403Z,23.58
2023-04-19T15:14:45.069Z,23.63
2023-04-19T15:17:14.748Z,23.63
2023-04-19T15:19:45.818Z,23.58
2023-04-19T15:22:15.550Z,23.58
2023-04-19T15:24:45.229Z,23.55
2023-04-19T15:27:14.878Z,23.62
2023-04-19T15:29:44.497Z,23.62
2023-04-19T15:32:14.157Z,23.59
2023-04-19T15:34:43.778Z,23.61
2023-04-19T15:37:13.420Z,23.61
2023-04-19T15:39:43.143Z,23.60
2023-04-19T15:42:12.795Z,23.62
2023-04-19T15:44:43.949Z,23.59
2023-04-19T15:47:13.793Z,23.63
2023-04-19T15:49:43.512Z,23.60
2023-04-19T15:52:13.150Z,23.61
2023-04-19T15:54:42.908Z,23.65
2023-04-19T15:57:12.587Z,23.63
2023-04-19T15:59:42.217Z,23.59
2023-04-19T16:02:11.986Z,23.62
2023-04-19T16:04:41.903Z,23.58
2023-04-19T16:07:11.608Z,23.59
2023-04-19T16:09:41.339Z,23.60
2023-04-19T16:12:11.039Z,23.61
2023-04-19T16:14:40.706Z,23.60
2023-04-19T16:17:10.330Z,23.62
2023-04-19T16:19:39.967Z,23.58
2023-04-19T16:22:09.650Z,23.59
2023-04-19T16:24:39.320Z,23.59
2023-04-19T16:27:08.983Z,23.60
2023-04-19T16:29:39.949Z,23.57
2023-04-19T16:32:09.767Z,23.60
2023-04-19T16:34:39.436Z,23.57
2023-04-19T16:37:09.028Z,23.58
2023-04-19T16:39:38.652Z,23.59
2023-04-19T16:42:08.347Z,23.61
2023-04-19T16:44:37.996Z,23.60
2023-04-19T16:47:07.706Z,23.59
2023-04-19T16:49:37.359Z,23.62
2023-04-19T16:52:07.076Z,23.59
2023-04-19T16:54:37.492Z,23.60
2023-04-19T16:57:07.323Z,23.59
2023-04-19T16:59:37.063Z,23.53
2023-04-19T17:02:09.065Z,23.50
2023-04-19T17:04:39.122Z,23.55
2023-04-19T17:07:10.155Z,23.60
2023-04-19T17:09:39.838Z,23.62
2023-04-19T17:12:09.571Z,23.61
2023-04-19T17:14:39.251Z,23.59
2023-04-19T17:17:08.908Z,23.60
2023-04-19T17:19:38.935Z,23.60
2023-04-19T17:22:08.694Z,23.63
2023-04-19T17:24:38.303Z,23.60
2023-04-19T17:27:08.002Z,23.59
2023-04-19T17:29:37.799Z,23.57
2023-04-19T17:32:07.676Z,23.58
2023-04-19T17:34:37.315Z,23.59
2023-04-19T17:37:07.898Z,23.58
2023-04-19T17:39:37.606Z,23.55
2023-04-19T17:42:07.282Z,23.56
2023-04-19T17:44:37.232Z,23.53
2023-04-19T17:47:06.983Z,23.57
2023-04-19T17:49:36.696Z,23.59
2023-04-19T17:52:06.493Z,23.58
2023-04-19T17:54:36.159Z,23.57
2023-04-19T17:57:05.880Z,23.54
2023-04-19T17:59:35.553Z,23.55
2023-04-19T18:02:06.364Z,23.56
2023-04-19T18:04:37.342Z,23.53
2023-04-19T18:07:07.645Z,23.53
2023-04-19T18:09:37.283Z,23.52
2023-04-19T18:12:07.279Z,23.53
2023-04-19T18:14:37.316Z,23.48
2023-04-19T18:17:07.047Z,23.48
2023-04-19T18:19:36.732Z,23.52
2023-04-19T18:22:06.372Z,23.50
2023-04-19T18:24:36.065Z,23.49
2023-04-19T18:27:07.047Z,23.50
2023-04-19T18:29:36.812Z,23.53
2023-04-19T18:32:06.959Z,23.46
2023-04-19T18:34:36.651Z,23.44
2023-04-19T18:37:16.793Z,23.36
2023-04-19T18:39:46.752Z,23.43
2023-04-19T18:42:16.441Z,23.45
2023-04-19T18:44:53.818Z,23.45
2023-04-19T18:47:24.651Z,23.44
2023-04-19T18:50:04.598Z,23.40
2023-04-19T18:52:37.921Z,23.41
2023-04-19T18:55:08.523Z,23.41
2023-04-19T18:57:40.326Z,23.43
2023-04-19T19:00:13.425Z,23.40
2023-04-19T19:02:43.968Z,23.41
2023-04-19T19:05:15.061Z,23.36
2023-04-19T19:07:45.471Z,23.37
2023-04-19T19:10:20.976Z,23.37
2023-04-19T19:12:52.432Z,23.36
2023-04-19T19:15:22.078Z,23.38
2023-04-19T19:17:51.789Z,23.36
2023-04-19T19:20:22.042Z,23.39
2023-04-19T19:22:51.811Z,23.37
2023-04-19T19:25:21.487Z,23.35
2023-04-19T19:28:06.429Z,23.37
2023-04-19T19:30:41.103Z,23.36
2023-04-19T19:33:10.925Z,23.35
2023-04-19T19:35:40.909Z,23.32
2023-04-19T19:38:10.584Z,23.32
2023-04-19T19:41:05.429Z,23.30
2023-04-19T19:43:30.030Z,23.29
2023-04-19T19:45:59.754Z,23.27
2023-04-19T19:48:30.405Z,23.27
2023-04-19T19:53:33.999Z,23.28
2023-04-19T19:56:04.326Z,23.27
2023-04-19T19:58:49.422Z,23.28
2023-04-19T20:01:22.051Z,23.30
2023-04-19T20:03:53.045Z,22.89
2023-04-19T20:08:57.731Z,22.72
2023-04-19T20:11:27.895Z,22.74
2023-04-19T20:13:57.656Z,22.73
2023-04-19T20:16:27.411Z,22.70
2023-04-19T20:18:59.258Z,22.81
2023-04-19T20:21:29.576Z,22.75
2023-04-19T20:23:59.241Z,22.73
2023-04-19T20:26:28.940Z,22.77
2023-04-19T20:28:58.602Z,22.72
2023-04-19T20:31:28.366Z,22.71
2023-04-19T20:33:58.020Z,22.71
2023-04-19T20:36:29.142Z,22.76
2023-04-19T20:39:00.217Z,22.69
2023-04-19T20:41:29.922Z,22.75
2023-04-19T20:44:01.263Z,22.69
2023-04-19T20:46:30.990Z,22.73
2023-04-19T20:49:00.786Z,22.68
2023-04-19T20:51:30.471Z,22.67
2023-04-19T20:54:00.366Z,22.68
2023-04-19T20:56:30.066Z,22.65
2023-04-19T20:58:59.758Z,22.70
2023-04-19T21:01:29.536Z,22.66
2023-04-19T21:03:59.479Z,22.60
2023-04-19T21:06:29.338Z,22.64
2023-04-19T21:09:00.797Z,22.66
2023-04-19T21:11:30.486Z,22.65
2023-04-19T21:14:00.191Z,22.56
2023-04-19T21:16:29.853Z,22.66
2023-04-19T21:18:59.589Z,22.64
2023-04-19T21:21:30.554Z,22.64
2023-04-19T21:24:01.911Z,22.64
2023-04-19T21:26:31.713Z,22.59
2023-04-19T21:29:01.362Z,22.66
2023-04-19T21:31:31.033Z,22.61
2023-04-19T21:34:00.704Z,22.66
2023-04-19T21:36:30.563Z,22.58
2023-04-19T21:39:00.202Z,22.64
2023-04-19T21:41:29.814Z,22.68
2023-04-19T21:43:59.395Z,22.65
2023-04-19T21:46:29.032Z,22.63
2023-04-19T21:48:58.661Z,22.57
2023-04-19T21:51:29.151Z,22.63
2023-04-19T21:53:58.844Z,22.62
2023-04-19T21:56:28.553Z,22.61
2023-04-19T21:58:58.255Z,22.55
2023-04-19T22:01:29.170Z,22.57
2023-04-19T22:04:00.297Z,22.56
2023-04-19T22:06:30.005Z,22.59
2023-04-19T22:09:00.931Z,22.59
2023-04-19T22:11:35.448Z,22.52
2023-04-19T22:14:05.283Z,22.58
2023-04-19T22:16:35.094Z,22.57
2023-04-19T22:19:05.066Z,22.61
2023-04-19T22:21:34.685Z,22.58
2023-04-19T22:24:05.205Z,22.57
2023-04-19T22:26:35.973Z,22.62
2023-04-19T22:29:05.665Z,22.64
2023-04-19T22:31:35.423Z,22.75
2023-04-19T22:34:05.083Z,22.71
2023-04-19T22:36:34.712Z,22.75
2023-04-19T22:39:04.690Z,22.80
2023-04-19T22:41:35.400Z,22.85
2023-04-19T22:44:05.357Z,22.91
2023-04-19T22:46:35.107Z,22.90
2023-04-19T22:49:05.009Z,22.90
2023-04-19T22:51:35.597Z,22.90
2023-04-19T22:54:05.854Z,22.97
2023-04-19T22:56:35.487Z,22.94
2023-04-19T22:59:05.150Z,22.98
2023-04-19T23:01:34.892Z,23.00
2023-04-19T23:04:04.654Z,23.02
2023-04-19T23:06:34.562Z,23.02
2023-04-19T23:09:04.485Z,22.98
2023-04-19T23:11:34.134Z,23.02
2023-04-19T23:14:04.240Z,23.04
2023-04-19T23:16:34.890Z,23.08
2023-04-19T23:19:04.587Z,23.10
2023-04-19T23:21:34.296Z,23.17
2023-04-19T23:24:04.002Z,23.07
2023-04-19T23:26:33.670Z,23.11
2023-04-19T23:29:03.311Z,23.14
2023-04-19T23:31:35.743Z,23.21
2023-04-19T23:34:05.495Z,23.21
2023-04-19T23:36:35.186Z,23.07
2023-04-19T23:39:04.978Z,23.19
2023-04-19T23:41:34.640Z,23.02
2023-04-19T23:44:04.336Z,23.10
2023-04-19T23:46:33.972Z,23.09
2023-04-19T23:49:03.638Z,23.18
2023-04-19T23:51:34.396Z,23.10
2023-04-19T23:54:04.020Z,23.09
2023-04-19T23:56:33.670Z,23.12
2023-04-19T23:59:03.327Z,23.10
